• Join FlightAware (Why Join?)
  • Login
  • US Flag 
11:36AM EDT


 

Airport Tracker/Info


-or-


 

Live Flight TrackerFlight Track Log ✈ N860BA ✈ 03-May-2013 ✈ KBFI - KPSP

Flight Track Log - Related Links

Times and Time Zones

All times are in EDT time to prevent confusion due to time zone crossing. See the N860BA flight status page for this flight to view local times or setup timezone preferences in your user account.

Time Position Orientation Groundspeed Altitude Reporting Facility
EDT Latitude Longitude Course Direction KTS MPH feet Rate Location/Type
06:13PM 47.5408 -122.3144 327° Northwest 145 167 1,000  Level Seattle Center
06:14PM 47.5583 -122.3311 327° Northwest 157 181 2,200 3,060 Climbing Seattle Center
06:15PM 47.6086 -122.3825 325° Northwest 236 272 5,400 3,360 Climbing Seattle Center
06:16PM 47.5678 -122.4581 231° Southwest 292 336 9,100 3,480 Climbing Seattle Center
06:17PM 47.4808 -122.4278 167° South 305 351 12,500 2,940 Climbing Seattle Center
06:18PM 47.3911 -122.3903 164° South 344 396 15,100 2,460 Climbing Seattle Center
06:19PM 47.2947 -122.3392 160° South 368 423 17,600 2,100 Climbing Seattle Center
06:20PM 47.1836 -122.2836 161° South 403 464 19,400 1,920 Climbing Seattle Center
06:21PM 47.0719 -122.2242 160° South 428 493 21,600 2,160 Climbing Seattle Center
06:22PM 46.9553 -122.1664 161° South 443 510 23,900 2,160 Climbing Seattle Center
06:23PM 46.8383 -122.1050 160° South 449 517 26,000 1,980 Climbing Seattle Center
06:24PM 46.7175 -122.0422 160° South 462 532 28,000 1,920 Climbing Seattle Center
06:25PM 46.5956 -121.9794 161° South 470 541 30,000 1,860 Climbing Seattle Center
06:26PM 46.4672 -121.9375 167° South 477 549 31,800 1,680 Climbing Seattle Center
06:27PM 46.3375 -121.8911 166° South 483 556 33,500 1,740 Climbing Seattle Center
06:28PM 46.1833 -121.8394 167° South 484 557 35,400 1,620 Climbing Seattle Center
06:29PM 46.0544 -121.7936 166° South 480 552 36,900 780 Climbing Seattle Center
06:30PM 45.9239 -121.7481 166° South 482 555 37,000  Climbing Seattle Center
06:31PM 45.7864 -121.7006 166° South 503 579 37,000  Level Seattle Center
06:32PM 45.6439 -121.6522 167° South 525 604 37,000  Level Seattle Center
06:33PM 45.5014 -121.6036 167° South 527 606 37,000  Level Seattle Center
06:34PM 45.3589 -121.5556 167° South 529 609 37,000  Level Seattle Center
06:35PM 45.2164 -121.5081 167° South 528 608 37,000  Level Seattle Center
06:36PM 45.0736 -121.4619 167° South 530 610 37,000  Level Seattle Center
06:37PM 44.9053 -121.4050 167° South 522 601 37,000  Level Seattle Center
06:38PM 44.7644 -121.3586 167° South 523 602 37,000  Level Seattle Center
06:39PM 44.6233 -121.3122 167° South 524 603 37,000  Level Seattle Center
06:40PM 44.4825 -121.2675 167° South 522 601 37,000  Level Seattle Center
06:41PM 44.3433 -121.2231 167° South 521 600 37,000  Level Seattle Center
06:42PM 44.2044 -121.1761 166° South 517 595 37,000  Level Seattle Center
06:43PM 44.0636 -121.1336 168° South 523 602 37,000  Level Seattle Center
06:44PM 43.9267 -121.0889 167° South 511 588 37,000  Level Seattle Center
06:45PM 43.7911 -121.0456 167° South 504 580 37,000  Level Seattle Center
06:46PM 43.6533 -121.0011 167° South 508 585 37,000  Level Seattle Center
06:47PM 43.4961 -120.9553 168° South 509 586 37,000  Level Seattle Center
06:48PM 43.3611 -120.9153 168° South 508 585 37,000  Level Seattle Center
06:49PM 43.2269 -120.8728 167° South 504 580 37,000  Level Seattle Center
06:50PM 43.0919 -120.8311 167° South 499 574 37,000  Level Seattle Center
06:51PM 42.9531 -120.7861 167° South 510 587 37,000  Level Seattle Center
06:52PM 42.8178 -120.7464 168° South 502 578 37,000  Level Seattle Center
06:53PM 42.6867 -120.7058 167° South 488 562 37,000  Level Seattle Center
06:54PM 42.5519 -120.6656 168° South 489 563 37,000  Level Seattle Center
06:55PM 42.4169 -120.6233 167° South 495 570 37,000  Level Seattle Center
06:56PM 42.2811 -120.5817 167° South 497 572 37,000  Level Seattle Center
06:57PM 42.1231 -120.5339 167° South 489 563 37,000  Level Seattle Center
06:58PM 41.9922 -120.4944 167° South 483 556 37,000  Level Seattle Center
06:59PM 41.8575 -120.4547 168° South 489 563 37,000  Level Seattle Center
07:00PM 41.7244 -120.4178 168° South 489 563 37,000  Level Seattle Center
07:01PM 41.5961 -120.3753 166° South 480 552 37,000  Level Seattle Center
07:02PM 41.4636 -120.3369 168° South 484 557 37,000  Level Seattle Center
07:03PM 41.3319 -120.2981 167° South 484 557 37,000  Level Seattle Center
07:05PM 41.2003 -120.2597 168° South 484 557 37,000  Level Seattle Center
07:06PM 41.0661 -120.2219 168° South 489 563 37,000  Level Seattle Center
07:07PM 40.9347 -120.1833 167° South 484 557 37,000  Level Seattle Center
07:08PM 40.8031 -120.1467 168° South 483 556 37,000  Level Seattle Center
07:09PM 40.6717 -120.1089 168° South 483 556 37,000  Level Seattle Center
07:10PM 40.5394 -120.0719 168° South 484 557 37,000  Level Seattle Center
07:11PM 40.4072 -120.0342 168° South 484 557 37,000  Level Seattle Center
07:12PM 40.2664 -119.9936 168° South 488 562 37,000  Level Seattle Center
07:13PM 40.1342 -119.9567 168° South 487 560 37,000  Level Seattle Center
07:13PM 40.0817 -119.9422 168° South 489 563 37,000  Level Oakland Center
07:14PM 39.9489 -119.9047 168° South 490 564 37,000  Level Oakland Center
07:15PM 39.8172 -119.8681 168° South 487 560 37,000  Level Oakland Center
07:16PM 39.6844 -119.8311 168° South 488 562 37,000  Level Oakland Center
07:17PM 39.5522 -119.7939 168° South 490 564 37,000  Level Oakland Center
07:18PM 39.4189 -119.7581 168° South 491 565 37,000  Level Oakland Center
07:19PM 39.2869 -119.7214 168° South 489 563 37,000  Level Oakland Center
07:20PM 39.1553 -119.6850 168° South 487 560 37,000  Level Oakland Center
07:21PM 39.0000 -119.6417 168° South 481 554 37,000  Level Oakland Center
07:22PM 38.8711 -119.6078 168° South 475 547 37,000  Level Oakland Center
07:23PM 38.7408 -119.5711 168° South 479 551 37,000  Level Oakland Center
07:24PM 38.6119 -119.5367 168° South 475 547 37,000  Level Oakland Center
07:25PM 38.4811 -119.5008 168° South 479 551 37,000  Level Oakland Center
07:26PM 38.3528 -119.4675 168° South 476 548 37,000  Level Oakland Center
07:27PM 38.2225 -119.4342 169° South 476 548 37,000  Level Oakland Center
07:28PM 38.0917 -119.3986 168° South 476 548 37,000  Level Oakland Center
07:29PM 37.9608 -119.3650 169° South 478 550 37,000  Level Oakland Center
07:30PM 37.8031 -119.3233 168° South 482 555 37,000  Level Oakland Center
07:31PM 37.6708 -119.2900 169° South 484 557 37,000 -60 Level Oakland Center
07:32PM 37.5547 -119.2617 169° South 477 549 36,900 -60 Descending Oakland Center
07:33PM 37.4236 -119.2242 167° South 483 556 36,900  Level Oakland Center
07:34PM 37.2661 -119.1822 168° South 486 559 36,900  Level Oakland Center
07:35PM 37.1353 -119.1489 169° South 482 555 36,900  Level Oakland Center
07:36PM 37.0056 -119.1156 168° South 477 549 36,900  Level Oakland Center
07:37PM 36.8750 -119.0817 168° South 477 549 36,900  Level Oakland Center
07:38PM 36.7450 -119.0475 168° South 477 549 36,900  Level Oakland Center
07:39PM 36.6156 -119.0142 168° South 475 547 36,900  Level Oakland Center
07:40PM 36.4850 -118.9811 168° South 477 549 36,900  Level Oakland Center
07:42PM 36.3558 -118.9475 168° South 474 545 36,900  Level Oakland Center
07:43PM 36.2267 -118.9169 169° South 472 543 36,900  Level Oakland Center
07:44PM 36.0728 -118.8803 169° South 468 539 36,900 -120 Level Oakland Center
07:45PM 35.9422 -118.8464 168° South 475 547 36,700 -840 Descending Oakland Center
07:46PM 35.8164 -118.8147 168° South 464 534 35,200 -1,680 Descending Oakland Center
07:47PM 35.6872 -118.7825 169° South 469 540 33,300 -1,680 Descending Oakland Center
07:47PM 35.6075 -118.7614 168° South 477 549 32,300 -1,440 Descending Los Angeles Center
07:48PM 35.4750 -118.7289 169° South 483 556 30,900 -720 Descending Los Angeles Center
07:49PM 35.3172 -118.6903 169° South 480 552 30,900  Level Los Angeles Center
07:50PM 35.1878 -118.6586 169° South 475 547 30,900 -360 Level Los Angeles Center
07:51PM 35.0578 -118.6250 168° South 475 547 30,200 -1,440 Descending Los Angeles Center
07:53PM 34.9481 -118.5186 142° Southeast 506 582 28,000 -2,220 Descending Los Angeles Center
07:54PM 34.8556 -118.3872 131° Southeast 510 587 25,700 -2,100 Descending Los Angeles Center
07:55PM 34.7653 -118.2567 130° Southeast 510 587 23,700 -2,040 Descending Los Angeles Center
07:56PM 34.6578 -118.1036 130° Southeast 503 579 21,500 -1,800 Descending Los Angeles Center
07:57PM 34.5861 -117.9678 123° Southeast 478 550 20,000 -720 Descending Los Angeles Center
07:58PM 34.5239 -117.8300 119° Southeast 470 541 20,000 -360 Level Los Angeles Center
07:59PM 34.4519 -117.6739 119° Southeast 449 517 19,300 -840 Descending Los Angeles Center
08:00PM 34.3800 -117.5181 119° Southeast 443 510 18,300 -1,020 Descending Los Angeles Center
08:01PM 34.3233 -117.3894 118° Southeast 437 503 17,300 -660 Descending Los Angeles Center
08:02PM 34.2603 -117.2600 120° Southeast 450 518 17,000 -540 Descending Los Angeles Center
08:03PM 34.2025 -117.1378 120° Southeast 436 502 16,200 -960 Descending Los Angeles Center
08:04PM 34.1444 -117.0108 119° Southeast 436 502 15,000 -1,320 Descending Los Angeles Center
08:05PM 34.1000 -116.9167 120° Southeast 397 457 14,000 -1,620 Descending Southern California TRACON
08:06PM 34.0500 -116.8167 121° Southeast 320 368 12,400 -1,740 Descending Southern California TRACON
08:06PM 34.0447 -116.7925 105° East 319 367 11,600 -3,480 Descending Los Angeles Center
08:07PM 33.9964 -116.7044 123° Southeast 287 330 7,400 -2,760 Descending Los Angeles Center
08:08PM 33.9564 -116.6281 122° Southeast 276 318 6,000 -1,800 Descending Los Angeles Center
08:10PM 33.9000 -116.5667 138° Southeast 174 200 2,900 -1,740 Descending Southern California TRACON
08:11PM 33.8667 -116.5333 140° Southeast 146 168 1,500 -1,320 Descending Southern California TRACON
08:13PM 33.8297 -116.5067 239° Southwest  Level Estimated
08:20PM 33.8297 -116.5067 239° Southwest  Level Estimated